Hlavní strana
METAR-TAF:

METAR-TAF

Letiště :

Letiště Longyearbyen

Longyearbyen, Norsko

zeměpisná šířka: 78-15N, zeměpisná délka: 015-28E, výška: 2 m

Aktuální stav počasí

Zpráva byla vytvořena před 20 minutami, v 20:50 UTC
Západojihozápadní vítr 10 kt
Teplota 6°C
Vlhkost vzduchu 75%
Tlak 1016 hPa
Viditelnost 10 km a více
Skoro jasno ve výšce 1500 ft
Polojasno ve výšce 18000 ft

METAR: ENSB 172050Z 25010KT 9999 FEW015 SCT180 06/02 Q1016 RMK WIND 1400FT VRB03KT

Čas: 23:10 (21:10 UTC)

Předpověď počasí

Předpověď platná od 17 v 18 UTC do 18 v 18 UTC
Západojihozápadní vítr 8 kt
Viditelnost 10 km a více
Skoro jasno ve výšce 1500 ft
Oblačno až skoro zataženo ve výšce 2000 ft
Pravděpodobnost 30% :
Dočasný
od 17 v 18 UTC do 18 v 18 UTC
Oblačno až skoro zataženo ve výšce 1200 ft

TAF: ENSB 1718/1818 25008KT 9999 FEW015 BKN020 PROB30 TEMPO 1718/1818 BKN012

Stav a předpovědi počasí z více než 4 000 letišť (zprávy METAR a TAF).

Červené a žluté tečky na mapě představují dostupné meteorologické stanice.

Když kurzor umístíte na tečku, zobrazí se název stanice.

Pak kliknutím zobrazíte stav a předpověď počasí.

Chcete-li změnit mapu, kliknutím na zelené tlačítko se znaménkem +mapu přiblížíte, kliknutím na zelené tlačítko se znaménkem – mapu oddálíte a kliknutím na zelené šipky přejdete na sousední mapy.


METAR-TAF: